sensor_id;sensor_type;location;lat;lon;timestamp;pressure;altitude;pressure_sealevel;temperature;humidity
9421;BME280;4749;51.398;5.466;2022-10-22T00:00:57;100753.25;;;13.11;100.00
9421;BME280;4749;51.398;5.466;2022-10-22T00:03:24;100746.25;;;13.07;100.00
9421;BME280;4749;51.398;5.466;2022-10-22T00:05:51;100741.88;;;13.03;100.00
9421;BME280;4749;51.398;5.466;2022-10-22T00:08:18;100743.66;;;13.01;100.00
9421;BME280;4749;51.398;5.466;2022-10-22T00:10:45;100748.09;;;12.99;100.00
9421;BME280;4749;51.398;5.466;2022-10-22T00:13:13;100747.25;;;12.95;100.00
9421;BME280;4749;51.398;5.466;2022-10-22T00:15:40;100749.00;;;12.93;100.00
9421;BME280;4749;51.398;5.466;2022-10-22T00:18:07;100744.66;;;12.89;100.00
9421;BME280;4749;51.398;5.466;2022-10-22T00:20:35;100752.56;;;12.89;100.00
9421;BME280;4749;51.398;5.466;2022-10-22T00:23:02;100750.84;;;12.85;100.00
9421;BME280;4749;51.398;5.466;2022-10-22T00:25:30;100756.16;;;12.82;100.00
9421;BME280;4749;51.398;5.466;2022-10-22T00:27:57;100751.75;;;12.82;100.00
9421;BME280;4749;51.398;5.466;2022-10-22T00:30:24;100750.88;;;12.82;100.00
9421;BME280;4749;51.398;5.466;2022-10-22T00:32:51;100750.00;;;12.81;100.00
9421;BME280;4749;51.398;5.466;2022-10-22T00:35:18;100750.91;;;12.80;100.00
9421;BME280;4749;51.398;5.466;2022-10-22T00:37:45;100744.75;;;12.80;100.00
9421;BME280;4749;51.398;5.466;2022-10-22T00:40:12;100749.13;;;12.78;100.00
9421;BME280;4749;51.398;5.466;2022-10-22T00:42:40;100743.00;;;12.76;100.00
9421;BME280;4749;51.398;5.466;2022-10-22T00:53:03;100761.47;;;12.79;100.00
9421;BME280;4749;51.398;5.466;2022-10-22T00:55:31;100757.94;;;12.80;100.00
9421;BME280;4749;51.398;5.466;2022-10-22T00:57:59;100759.69;;;12.81;100.00
9421;BME280;4749;51.398;5.466;2022-10-22T01:00:27;100754.41;;;12.81;100.00
9421;BME280;4749;51.398;5.466;2022-10-22T01:02:55;100747.34;;;12.83;100.00
9421;BME280;4749;51.398;5.466;2022-10-22T01:05:31;100741.16;;;12.85;100.00
9421;BME280;4749;51.398;5.466;2022-10-22T01:07:59;100749.94;;;12.89;100.00
9421;BME280;4749;51.398;5.466;2022-10-22T01:10:44;100748.16;;;12.91;100.00
9421;BME280;4749;51.398;5.466;2022-10-22T01:16:10;100751.63;;;12.94;100.00
9421;BME280;4749;51.398;5.466;2022-10-22T01:19:13;100761.31;;;12.95;100.00
9421;BME280;4749;51.398;5.466;2022-10-22T01:21:43;100756.03;;;12.97;100.00
9421;BME280;4749;51.398;5.466;2022-10-22T01:29:39;100754.22;;;13.02;100.00
9421;BME280;4749;51.398;5.466;2022-10-22T01:32:14;100756.84;;;13.02;100.00
9421;BME280;4749;51.398;5.466;2022-10-22T01:34:48;100759.50;;;13.01;100.00
9421;BME280;4749;51.398;5.466;2022-10-22T01:37:17;100762.16;;;13.01;100.00
9421;BME280;4749;51.398;5.466;2022-10-22T01:39:47;100746.28;;;13.02;100.00
9421;BME280;4749;51.398;5.466;2022-10-22T01:42:15;100748.94;;;13.01;100.00
9421;BME280;4749;51.398;5.466;2022-10-22T01:44:42;100748.94;;;13.01;100.00
9421;BME280;4749;51.398;5.466;2022-10-22T01:47:26;100748.97;;;12.99;100.00
9421;BME280;4749;51.398;5.466;2022-10-22T02:01:40;100754.22;;;13.01;100.00
9421;BME280;4749;51.398;5.466;2022-10-22T02:07:08;100757.75;;;13.01;100.00
9421;BME280;4749;51.398;5.466;2022-10-22T02:09:37;100742.78;;;13.02;100.00
9421;BME280;4749;51.398;5.466;2022-10-22T02:12:07;100745.44;;;13.00;100.00
9421;BME280;4749;51.398;5.466;2022-10-22T02:14:38;100748.06;;;13.00;100.00
9421;BME280;4749;51.398;5.466;2022-10-22T02:17:12;100745.44;;;12.99;100.00
9421;BME280;4749;51.398;5.466;2022-10-22T02:19:58;100742.84;;;12.97;100.00
9421;BME280;4749;51.398;5.466;2022-10-22T02:22:27;100739.34;;;12.95;100.00
9421;BME280;4749;51.398;5.466;2022-10-22T02:24:55;100750.78;;;12.95;100.00
9421;BME280;4749;51.398;5.466;2022-10-22T02:27:25;100747.25;;;12.93;100.00
9421;BME280;4749;51.398;5.466;2022-10-22T02:30:10;100746.38;;;12.93;100.00
9421;BME280;4749;51.398;5.466;2022-10-22T02:35:28;100752.56;;;12.89;100.00
9421;BME280;4749;51.398;5.466;2022-10-22T02:37:57;100749.97;;;12.87;100.00
9421;BME280;4749;51.398;5.466;2022-10-22T02:40:26;100748.19;;;12.85;100.00
9421;BME280;4749;51.398;5.466;2022-10-22T02:42:56;100742.97;;;12.82;100.00
9421;BME280;4749;51.398;5.466;2022-10-22T02:45:23;100752.69;;;12.78;100.00
9421;BME280;4749;51.398;5.466;2022-10-22T02:47:51;100746.53;;;12.73;100.00
9421;BME280;4749;51.398;5.466;2022-10-22T02:50:18;100762.38;;;12.72;100.00
9421;BME280;4749;51.398;5.466;2022-10-22T02:52:45;100758.91;;;12.70;100.00
9421;BME280;4749;51.398;5.466;2022-10-22T02:55:13;100752.72;;;12.67;100.00
9421;BME280;4749;51.398;5.466;2022-10-22T02:57:40;100761.56;;;12.65;100.00
9421;BME280;4749;51.398;5.466;2022-10-22T03:00:09;100762.44;;;12.64;100.00
9421;BME280;4749;51.398;5.466;2022-10-22T03:02:37;100761.56;;;12.60;100.00
9421;BME280;4749;51.398;5.466;2022-10-22T03:05:05;100758.94;;;12.59;100.00
9421;BME280;4749;51.398;5.466;2022-10-22T03:07:32;100770.41;;;12.56;100.00
9421;BME280;4749;51.398;5.466;2022-10-22T03:10:00;100768.63;;;12.57;100.00
9421;BME280;4749;51.398;5.466;2022-10-22T03:12:27;100769.53;;;12.56;100.00
9421;BME280;4749;51.398;5.466;2022-10-22T03:14:54;100773.94;;;12.55;100.00
9421;BME280;4749;51.398;5.466;2022-10-22T03:17:21;100766.03;;;12.52;100.00
9421;BME280;4749;51.398;5.466;2022-10-22T03:19:49;100774.81;;;12.51;100.00
9421;BME280;4749;51.398;5.466;2022-10-22T03:22:29;100778.34;;;12.50;100.00
9421;BME280;4749;51.398;5.466;2022-10-22T03:25:02;100768.69;;;12.49;100.00
9421;BME280;4749;51.398;5.466;2022-10-22T03:27:30;100778.34;;;12.49;100.00
9421;BME280;4749;51.398;5.466;2022-10-22T03:29:58;100788.03;;;12.50;100.00
9421;BME280;4749;51.398;5.466;2022-10-22T03:32:25;100779.22;;;12.49;100.00
9421;BME280;4749;51.398;5.466;2022-10-22T03:34:52;100791.53;;;12.49;100.00
9421;BME280;4749;51.398;5.466;2022-10-22T03:37:20;100790.66;;;12.50;100.00
9421;BME280;4749;51.398;5.466;2022-10-22T03:39:47;100797.69;;;12.54;100.00
9421;BME280;4749;51.398;5.466;2022-10-22T03:42:15;100792.34;;;12.58;100.00
9421;BME280;4749;51.398;5.466;2022-10-22T03:44:43;100798.47;;;12.65;100.00
9421;BME280;4749;51.398;5.466;2022-10-22T03:47:10;100808.09;;;12.72;100.00
9421;BME280;4749;51.398;5.466;2022-10-22T03:49:38;100801.88;;;12.78;100.00
9421;BME280;4749;51.398;5.466;2022-10-22T03:52:11;100802.75;;;12.83;100.00
9421;BME280;4749;51.398;5.466;2022-10-22T03:54:39;100806.25;;;12.86;100.00
9421;BME280;4749;51.398;5.466;2022-10-22T03:57:08;100800.94;;;12.89;100.00
9421;BME280;4749;51.398;5.466;2022-10-22T03:59:39;100811.47;;;12.95;100.00
9421;BME280;4749;51.398;5.466;2022-10-22T04:02:07;100807.91;;;13.00;100.00
9421;BME280;4749;51.398;5.466;2022-10-22T04:04:35;100813.13;;;13.03;100.00
9421;BME280;4749;51.398;5.466;2022-10-22T04:07:04;100816.66;;;13.05;100.00
9421;BME280;4749;51.398;5.466;2022-10-22T04:09:32;100816.63;;;13.09;100.00
9421;BME280;4749;51.398;5.466;2022-10-22T04:12:00;100814.84;;;13.13;100.00
9421;BME280;4749;51.398;5.466;2022-10-22T04:14:27;100821.84;;;13.17;100.00
9421;BME280;4749;51.398;5.466;2022-10-22T04:16:54;100822.69;;;13.19;100.00
9421;BME280;4749;51.398;5.466;2022-10-22T04:19:21;100828.88;;;13.21;100.00
9421;BME280;4749;51.398;5.466;2022-10-22T04:21:49;100827.97;;;13.23;100.00
9421;BME280;4749;51.398;5.466;2022-10-22T04:24:16;100826.22;;;13.24;100.00
9421;BME280;4749;51.398;5.466;2022-10-22T04:26:46;100824.41;;;13.28;100.00
9421;BME280;4749;51.398;5.466;2022-10-22T04:29:14;100827.06;;;13.29;100.00
9421;BME280;4749;51.398;5.466;2022-10-22T04:31:42;100827.91;;;13.31;100.00
9421;BME280;4749;51.398;5.466;2022-10-22T04:34:09;100823.50;;;13.33;100.00
9421;BME280;4749;51.398;5.466;2022-10-22T04:36:38;100818.19;;;13.35;100.00
9421;BME280;4749;51.398;5.466;2022-10-22T04:39:07;100819.94;;;13.37;100.00
9421;BME280;4749;51.398;5.466;2022-10-22T04:41:38;100821.69;;;13.35;100.00
9421;BME280;4749;51.398;5.466;2022-10-22T04:44:06;100825.22;;;13.36;100.00
9421;BME280;4749;51.398;5.466;2022-10-22T04:46:41;100824.34;;;13.35;100.00
9421;BME280;4749;51.398;5.466;2022-10-22T04:49:09;100833.97;;;13.41;100.00
9421;BME280;4749;51.398;5.466;2022-10-22T04:51:36;100833.06;;;13.45;100.00
9421;BME280;4749;51.398;5.466;2022-10-22T04:54:04;100834.84;;;13.46;100.00
9421;BME280;4749;51.398;5.466;2022-10-22T04:56:32;100838.31;;;13.48;100.00
9421;BME280;4749;51.398;5.466;2022-10-22T04:59:05;100839.19;;;13.50;100.00
9421;BME280;4749;51.398;5.466;2022-10-22T05:01:36;100843.56;;;13.51;100.00
9421;BME280;4749;51.398;5.466;2022-10-22T05:04:15;100844.47;;;13.50;100.00
9421;BME280;4749;51.398;5.466;2022-10-22T05:06:43;100852.34;;;13.56;100.00
9421;BME280;4749;51.398;5.466;2022-10-22T05:09:16;100849.66;;;13.59;100.00
9421;BME280;4749;51.398;5.466;2022-10-22T05:11:46;100854.91;;;13.64;100.00
9421;BME280;4749;51.398;5.466;2022-10-22T05:14:23;100851.31;;;13.68;100.00
9421;BME280;4749;51.398;5.466;2022-10-22T05:16:51;100839.84;;;13.70;100.00
9421;BME280;4749;51.398;5.466;2022-10-22T05:19:28;100842.47;;;13.75;100.00
9421;BME280;4749;51.398;5.466;2022-10-22T05:21:59;100848.59;;;13.77;100.00
9421;BME280;4749;51.398;5.466;2022-10-22T05:24:28;100848.59;;;13.80;100.00
9421;BME280;4749;51.398;5.466;2022-10-22T05:26:57;100853.81;;;13.85;100.00
9421;BME280;4749;51.398;5.466;2022-10-22T05:29:26;100857.28;;;13.87;100.00
9421;BME280;4749;51.398;5.466;2022-10-22T05:31:54;100855.53;;;13.87;100.00
9421;BME280;4749;51.398;5.466;2022-10-22T05:34:21;100847.59;;;13.89;100.00
9421;BME280;4749;51.398;5.466;2022-10-22T05:36:48;100852.88;;;13.89;100.00
9421;BME280;4749;51.398;5.466;2022-10-22T05:39:15;100859.91;;;13.91;100.00
9421;BME280;4749;51.398;5.466;2022-10-22T05:41:42;100855.50;;;13.90;100.00
9421;BME280;4749;51.398;5.466;2022-10-22T05:44:11;100865.22;;;13.90;100.00
9421;BME280;4749;51.398;5.466;2022-10-22T05:46:39;100872.28;;;13.88;100.00
9421;BME280;4749;51.398;5.466;2022-10-22T05:49:07;100877.56;;;13.86;100.00
9421;BME280;4749;51.398;5.466;2022-10-22T05:51:35;100874.06;;;13.84;100.00
9421;BME280;4749;51.398;5.466;2022-10-22T05:54:06;100880.22;;;13.85;100.00
9421;BME280;4749;51.398;5.466;2022-10-22T05:56:34;100880.25;;;13.83;100.00
9421;BME280;4749;51.398;5.466;2022-10-22T05:59:03;100881.13;;;13.82;100.00
9421;BME280;4749;51.398;5.466;2022-10-22T06:01:32;100881.16;;;13.80;100.00
9421;BME280;4749;51.398;5.466;2022-10-22T06:04:04;100889.09;;;13.79;100.00
9421;BME280;4749;51.398;5.466;2022-10-22T06:06:58;100889.09;;;13.79;100.00
9421;BME280;4749;51.398;5.466;2022-10-22T06:09:33;100891.75;;;13.77;100.00
9421;BME280;4749;51.398;5.466;2022-10-22T06:12:06;100895.28;;;13.76;100.00
9421;BME280;4749;51.398;5.466;2022-10-22T06:14:36;100900.53;;;13.78;100.00
9421;BME280;4749;51.398;5.466;2022-10-22T06:17:04;100903.19;;;13.76;100.00
9421;BME280;4749;51.398;5.466;2022-10-22T06:19:31;100913.75;;;13.78;100.00
9421;BME280;4749;51.398;5.466;2022-10-22T06:22:00;100912.88;;;13.77;100.00
9421;BME280;4749;51.398;5.466;2022-10-22T06:24:27;100916.41;;;13.79;100.00
9421;BME280;4749;51.398;5.466;2022-10-22T06:26:55;100912.88;;;13.80;100.00
9421;BME280;4749;51.398;5.466;2022-10-22T06:29:22;100909.34;;;13.82;100.00
9421;BME280;4749;51.398;5.466;2022-10-22T06:31:49;100915.50;;;13.82;100.00
9421;BME280;4749;51.398;5.466;2022-10-22T06:34:16;100924.28;;;13.84;100.00
9421;BME280;4749;51.398;5.466;2022-10-22T06:36:45;100928.63;;;13.90;100.00
9421;BME280;4749;51.398;5.466;2022-10-22T06:39:15;100928.56;;;13.97;100.00
9421;BME280;4749;51.398;5.466;2022-10-22T06:41:43;100938.16;;;14.07;100.00
9421;BME280;4749;51.398;5.466;2022-10-22T06:44:16;100941.56;;;14.17;100.00
9421;BME280;4749;51.398;5.466;2022-10-22T06:46:43;100946.81;;;14.23;100.00
9421;BME280;4749;51.398;5.466;2022-10-22T06:49:13;100947.59;;;14.28;100.00
9421;BME280;4749;51.398;5.466;2022-10-22T06:51:41;100952.00;;;14.32;100.00
9421;BME280;4749;51.398;5.466;2022-10-22T06:54:09;100958.97;;;14.40;100.00
9421;BME280;4749;51.398;5.466;2022-10-22T06:56:36;100950.09;;;14.45;100.00
9421;BME280;4749;51.398;5.466;2022-10-22T06:59:03;100968.56;;;14.51;100.00
9421;BME280;4749;51.398;5.466;2022-10-22T07:01:33;100962.38;;;14.51;100.00
9421;BME280;4749;51.398;5.466;2022-10-22T07:04:02;100972.09;;;14.50;100.00
9421;BME280;4749;51.398;5.466;2022-10-22T07:06:30;100973.84;;;14.51;100.00
9421;BME280;4749;51.398;5.466;2022-10-22T07:08:59;100977.31;;;14.56;100.00
9421;BME280;4749;51.398;5.466;2022-10-22T07:11:38;100976.38;;;14.63;100.00
9421;BME280;4749;51.398;5.466;2022-10-22T07:14:05;100980.66;;;14.71;100.00
9421;BME280;4749;51.398;5.466;2022-10-22T07:16:32;100988.50;;;14.80;100.00
9421;BME280;4749;51.398;5.466;2022-10-22T07:19:00;100983.97;;;14.88;100.00
9421;BME280;4749;51.398;5.466;2022-10-22T07:21:29;100981.25;;;14.94;100.00
9421;BME280;4749;51.398;5.466;2022-10-22T07:23:58;100989.94;;;15.04;100.00
9421;BME280;4749;51.398;5.466;2022-10-22T07:26:26;100996.03;;;15.13;100.00
9421;BME280;4749;51.398;5.466;2022-10-22T07:28:58;101000.31;;;15.22;100.00
9421;BME280;4749;51.398;5.466;2022-10-22T07:31:25;101006.38;;;15.29;100.00
9421;BME280;4749;51.398;5.466;2022-10-22T07:33:52;101006.31;;;15.33;100.00
9421;BME280;4749;51.398;5.466;2022-10-22T07:36:20;101018.66;;;15.34;100.00
9421;BME280;4749;51.398;5.466;2022-10-22T07:38:52;101023.13;;;15.32;100.00
9421;BME280;4749;51.398;5.466;2022-10-22T07:41:19;101019.63;;;15.30;100.00
9421;BME280;4749;51.398;5.466;2022-10-22T07:43:46;101025.78;;;15.31;100.00
9421;BME280;4749;51.398;5.466;2022-10-22T07:46:13;101031.91;;;15.34;100.00
9421;BME280;4749;51.398;5.466;2022-10-22T07:48:40;101030.09;;;15.38;100.00
9421;BME280;4749;51.398;5.466;2022-10-22T07:51:08;101037.19;;;15.36;100.00
9421;BME280;4749;51.398;5.466;2022-10-22T07:53:35;101028.38;;;15.34;100.00
9421;BME280;4749;51.398;5.466;2022-10-22T07:56:03;101038.94;;;15.37;100.00
9421;BME280;4749;51.398;5.466;2022-10-22T07:58:30;101046.75;;;15.46;100.00
9421;BME280;4749;51.398;5.466;2022-10-22T08:00:59;101035.97;;;15.60;100.00
9421;BME280;4749;51.398;5.466;2022-10-22T08:03:28;101049.97;;;15.69;100.00
9421;BME280;4749;51.398;5.466;2022-10-22T08:05:55;101050.81;;;15.73;100.00
9421;BME280;4749;51.398;5.466;2022-10-22T08:08:23;101048.09;;;15.77;100.00
9421;BME280;4749;51.398;5.466;2022-10-22T08:10:57;101059.41;;;15.90;100.00
9421;BME280;4749;51.398;5.466;2022-10-22T08:13:25;101053.06;;;15.97;100.00
9421;BME280;4749;51.398;5.466;2022-10-22T08:15:53;101055.50;;;16.11;100.00
9421;BME280;4749;51.398;5.466;2022-10-22T08:18:24;101052.56;;;16.28;100.00
9421;BME280;4749;51.398;5.466;2022-10-22T08:20:51;101058.53;;;16.39;100.00
9421;BME280;4749;51.398;5.466;2022-10-22T08:26:10;101057.44;;;16.52;100.00
9421;BME280;4749;51.398;5.466;2022-10-22T08:28:37;101071.47;;;16.59;100.00
9421;BME280;4749;51.398;5.466;2022-10-22T08:31:06;101071.28;;;16.70;100.00
9421;BME280;4749;51.398;5.466;2022-10-22T08:33:37;101071.22;;;16.74;100.00
9421;BME280;4749;51.398;5.466;2022-10-22T08:36:05;101075.63;;;16.75;100.00
9421;BME280;4749;51.398;5.466;2022-10-22T08:38:32;101087.00;;;16.82;100.00
9421;BME280;4749;51.398;5.466;2022-10-22T08:41:15;101089.53;;;16.88;100.00
9421;BME280;4749;51.398;5.466;2022-10-22T08:47:15;101099.88;;;17.02;100.00
9421;BME280;4749;51.398;5.466;2022-10-22T08:49:48;101106.75;;;17.12;100.00
9421;BME280;4749;51.398;5.466;2022-10-22T08:52:17;101105.81;;;17.14;100.00
9421;BME280;4749;51.398;5.466;2022-10-22T08:54:58;101104.03;;;17.15;100.00
9421;BME280;4749;51.398;5.466;2022-10-22T09:06:12;101116.03;;;17.78;100.00
9421;BME280;4749;51.398;5.466;2022-10-22T09:08:42;101116.59;;;17.90;100.00
9421;BME280;4749;51.398;5.466;2022-10-22T09:13:56;101128.50;;;18.13;100.00
9421;BME280;4749;51.398;5.466;2022-10-22T09:17:15;101139.53;;;18.33;100.00
9421;BME280;4749;51.398;5.466;2022-10-22T09:22:58;101140.59;;;18.26;100.00
9421;BME280;4749;51.398;5.466;2022-10-22T09:25:30;101137.06;;;18.24;100.00
9421;BME280;4749;51.398;5.466;2022-10-22T09:27:59;101137.94;;;18.26;100.00
9421;BME280;4749;51.398;5.466;2022-10-22T09:30:34;101139.56;;;18.32;100.00
9421;BME280;4749;51.398;5.466;2022-10-22T09:33:16;101143.72;;;18.43;100.00
9421;BME280;4749;51.398;5.466;2022-10-22T09:36:00;101144.16;;;18.61;100.00
9421;BME280;4749;51.398;5.466;2022-10-22T09:38:32;101138.50;;;18.74;100.00
9421;BME280;4749;51.398;5.466;2022-10-22T09:41:01;101148.94;;;18.82;100.00
9421;BME280;4749;51.398;5.466;2022-10-22T09:43:32;101146.38;;;18.79;100.00
9421;BME280;4749;51.398;5.466;2022-10-22T09:46:04;101155.00;;;18.89;100.00
9421;BME280;4749;51.398;5.466;2022-10-22T09:48:38;101153.81;;;19.00;100.00
9421;BME280;4749;51.398;5.466;2022-10-22T09:51:45;101160.78;;;19.04;100.00
9421;BME280;4749;51.398;5.466;2022-10-22T09:54:17;101164.03;;;19.16;100.00
9421;BME280;4749;51.398;5.466;2022-10-22T09:59:36;101164.63;;;19.25;100.00
9421;BME280;4749;51.398;5.466;2022-10-22T10:02:16;101172.41;;;19.33;100.00
9421;BME280;4749;51.398;5.466;2022-10-22T10:05:04;101177.53;;;19.40;100.00
9421;BME280;4749;51.398;5.466;2022-10-22T10:07:34;101175.41;;;19.53;100.00
9421;BME280;4749;51.398;5.466;2022-10-22T10:10:16;101185.69;;;19.67;100.00
9421;BME280;4749;51.398;5.466;2022-10-22T10:13:09;101184.59;;;19.74;100.00
9421;BME280;4749;51.398;5.466;2022-10-22T10:19:07;101194.25;;;19.78;100.00
9421;BME280;4749;51.398;5.466;2022-10-22T10:25:22;101206.84;;;19.73;100.00
9421;BME280;4749;51.398;5.466;2022-10-22T10:31:12;101213.97;;;19.73;100.00
9421;BME280;4749;51.398;5.466;2022-10-22T10:36:45;101218.72;;;19.63;100.00
9421;BME280;4749;51.398;5.466;2022-10-22T10:42:35;101216.50;;;19.46;100.00
9421;BME280;4749;51.398;5.466;2022-10-22T10:45:15;101219.25;;;19.43;100.00
9421;BME280;4749;51.398;5.466;2022-10-22T10:54:06;101212.63;;;19.58;100.00
9421;BME280;4749;51.398;5.466;2022-10-22T10:59:59;101216.03;;;19.63;100.00
9421;BME280;4749;51.398;5.466;2022-10-22T11:03:24;101213.94;;;20.04;100.00
9421;BME280;4749;51.398;5.466;2022-10-22T11:06:18;101214.47;;;20.15;100.00
9421;BME280;4749;51.398;5.466;2022-10-22T11:09:02;101204.84;;;20.11;100.00
9421;BME280;4749;51.398;5.466;2022-10-22T11:11:47;101210.50;;;20.28;100.00
9421;BME280;4749;51.398;5.466;2022-10-22T11:17:13;101209.53;;;20.03;100.00
9421;BME280;4749;51.398;5.466;2022-10-22T11:19:52;101198.22;;;19.94;100.00
9421;BME280;4749;51.398;5.466;2022-10-22T11:23:04;101213.25;;;19.97;100.00
9421;BME280;4749;51.398;5.466;2022-10-22T11:25:48;101211.88;;;20.13;100.00
9421;BME280;4749;51.398;5.466;2022-10-22T11:28:32;101210.81;;;20.17;100.00
9421;BME280;4749;51.398;5.466;2022-10-22T11:31:23;101206.81;;;20.04;100.00
9421;BME280;4749;51.398;5.466;2022-10-22T11:37:02;101202.63;;;19.95;100.00
9421;BME280;4749;51.398;5.466;2022-10-22T11:39:50;101213.03;;;20.05;100.00
9421;BME280;4749;51.398;5.466;2022-10-22T11:42:22;101204.66;;;20.15;100.00
9421;BME280;4749;51.398;5.466;2022-10-22T11:53:10;101199.59;;;20.64;100.00
9421;BME280;4749;51.398;5.466;2022-10-22T11:55:48;101200.56;;;20.88;100.00
9421;BME280;4749;51.398;5.466;2022-10-22T12:03:47;101204.47;;;21.54;100.00
9421;BME280;4749;51.398;5.466;2022-10-22T12:11:25;101202.53;;;21.07;100.00
9421;BME280;4749;51.398;5.466;2022-10-22T12:14:25;101208.47;;;20.91;100.00
9421;BME280;4749;51.398;5.466;2022-10-22T12:17:13;101216.38;;;20.67;100.00
9421;BME280;4749;51.398;5.466;2022-10-22T12:19:46;101216.53;;;20.63;100.00
9421;BME280;4749;51.398;5.466;2022-10-22T12:22:31;101218.22;;;20.65;100.00
9421;BME280;4749;51.398;5.466;2022-10-22T12:25:04;101223.19;;;20.49;100.00
9421;BME280;4749;51.398;5.466;2022-10-22T12:27:36;101223.50;;;20.39;100.00
9421;BME280;4749;51.398;5.466;2022-10-22T12:30:27;101224.22;;;20.45;100.00
9421;BME280;4749;51.398;5.466;2022-10-22T12:32:58;101213.94;;;20.61;100.00
9421;BME280;4749;51.398;5.466;2022-10-22T12:35:44;101221.38;;;20.78;100.00
9421;BME280;4749;51.398;5.466;2022-10-22T12:38:18;101222.06;;;20.83;100.00
9421;BME280;4749;51.398;5.466;2022-10-22T12:40:48;101223.41;;;20.96;100.00
9421;BME280;4749;51.398;5.466;2022-10-22T12:43:19;101214.38;;;21.25;100.00
9421;BME280;4749;51.398;5.466;2022-10-22T12:45:50;101220.75;;;21.21;100.00
9421;BME280;4749;51.398;5.466;2022-10-22T12:48:37;101222.06;;;21.36;100.00
9421;BME280;4749;51.398;5.466;2022-10-22T12:51:07;101217.84;;;21.29;100.00
9421;BME280;4749;51.398;5.466;2022-10-22T12:53:54;101215.50;;;21.18;100.00
9421;BME280;4749;51.398;5.466;2022-10-22T12:56:26;101214.53;;;21.21;100.00
9421;BME280;4749;51.398;5.466;2022-10-22T12:58:59;101225.69;;;21.33;100.00
9421;BME280;4749;51.398;5.466;2022-10-22T13:01:34;101217.03;;;21.25;100.00
9421;BME280;4749;51.398;5.466;2022-10-22T13:06:45;101215.19;;;21.02;100.00
9421;BME280;4749;51.398;5.466;2022-10-22T13:09:21;101208.41;;;20.92;100.00
9421;BME280;4749;51.398;5.466;2022-10-22T13:12:03;101208.78;;;20.82;100.00
9421;BME280;4749;51.398;5.466;2022-10-22T13:14:34;101215.34;;;20.71;100.00
9421;BME280;4749;51.398;5.466;2022-10-22T13:17:19;101210.22;;;20.65;100.00
9421;BME280;4749;51.398;5.466;2022-10-22T13:22:38;101202.75;;;20.48;100.00
9421;BME280;4749;51.398;5.466;2022-10-22T13:27:56;101198.22;;;20.50;100.00
9421;BME280;4749;51.398;5.466;2022-10-22T13:30:34;101196.72;;;20.43;100.00
9421;BME280;4749;51.398;5.466;2022-10-22T13:33:05;101197.56;;;20.42;100.00
9421;BME280;4749;51.398;5.466;2022-10-22T13:35:35;101188.69;;;20.43;100.00
9421;BME280;4749;51.398;5.466;2022-10-22T13:38:25;101199.72;;;20.59;100.00
9421;BME280;4749;51.398;5.466;2022-10-22T13:40:54;101194.75;;;20.48;100.00
9421;BME280;4749;51.398;5.466;2022-10-22T13:43:22;101196.72;;;20.43;100.00
9421;BME280;4749;51.398;5.466;2022-10-22T13:45:54;101196.44;;;20.51;100.00
9421;BME280;4749;51.398;5.466;2022-10-22T13:48:24;101196.47;;;20.49;100.00
9421;BME280;4749;51.398;5.466;2022-10-22T13:50:55;101192.06;;;20.48;100.00
9421;BME280;4749;51.398;5.466;2022-10-22T13:53:27;101193.94;;;20.46;100.00
9421;BME280;4749;51.398;5.466;2022-10-22T13:55:56;101197.59;;;20.44;100.00
9421;BME280;4749;51.398;5.466;2022-10-22T13:58:24;101198.97;;;20.26;100.00
9421;BME280;4749;51.398;5.466;2022-10-22T14:00:57;101203.97;;;20.09;100.00
9421;BME280;4749;51.398;5.466;2022-10-22T14:03:35;101202.25;;;19.78;100.00
9421;BME280;4749;51.398;5.466;2022-10-22T14:06:11;101209.59;;;20.01;100.00
9421;BME280;4749;51.398;5.466;2022-10-22T14:08:40;101203.41;;;19.99;100.00
9421;BME280;4749;51.398;5.466;2022-10-22T14:11:11;101192.94;;;19.91;100.00
9421;BME280;4749;51.398;5.466;2022-10-22T14:13:38;101206.53;;;19.84;100.00
9421;BME280;4749;51.398;5.466;2022-10-22T14:16:20;101205.63;;;19.85;100.00
9421;BME280;4749;51.398;5.466;2022-10-22T14:18:49;101206.94;;;20.00;100.00
9421;BME280;4749;51.398;5.466;2022-10-22T14:21:18;101211.00;;;20.13;100.00
9421;BME280;4749;51.398;5.466;2022-10-22T14:23:47;101211.31;;;20.30;100.00
9421;BME280;4749;51.398;5.466;2022-10-22T14:26:27;101214.47;;;20.44;100.00
9421;BME280;4749;51.398;5.466;2022-10-22T14:28:56;101207.16;;;20.49;100.00
9421;BME280;4749;51.398;5.466;2022-10-22T14:31:40;101207.03;;;20.54;100.00
9421;BME280;4749;51.398;5.466;2022-10-22T14:34:13;101209.41;;;20.63;100.00
9421;BME280;4749;51.398;5.466;2022-10-22T14:36:40;101211.81;;;20.71;100.00
9421;BME280;4749;51.398;5.466;2022-10-22T14:39:11;101210.63;;;20.79;100.00
9421;BME280;4749;51.398;5.466;2022-10-22T14:41:39;101215.78;;;20.86;100.00
9421;BME280;4749;51.398;5.466;2022-10-22T14:44:11;101212.25;;;20.84;100.00
9421;BME280;4749;51.398;5.466;2022-10-22T14:46:39;101215.06;;;20.80;100.00
9421;BME280;4749;51.398;5.466;2022-10-22T14:49:09;101212.81;;;20.68;100.00
9421;BME280;4749;51.398;5.466;2022-10-22T14:51:37;101212.38;;;20.54;100.00
9421;BME280;4749;51.398;5.466;2022-10-22T14:54:04;101227.00;;;20.41;100.00
9421;BME280;4749;51.398;5.466;2022-10-22T14:56:32;101229.16;;;20.30;100.00
9421;BME280;4749;51.398;5.466;2022-10-22T14:58:59;101228.31;;;20.28;100.00
9421;BME280;4749;51.398;5.466;2022-10-22T15:01:26;101234.50;;;20.30;100.00
9421;BME280;4749;51.398;5.466;2022-10-22T15:03:53;101233.91;;;20.20;100.00
9421;BME280;4749;51.398;5.466;2022-10-22T15:06:20;101234.31;;;20.06;100.00
9421;BME280;4749;51.398;5.466;2022-10-22T15:08:47;101237.16;;;20.00;100.00
9421;BME280;4749;51.398;5.466;2022-10-22T15:11:15;101246.09;;;19.99;100.00
9421;BME280;4749;51.398;5.466;2022-10-22T15:13:42;101238.13;;;19.98;100.00
9421;BME280;4749;51.398;5.466;2022-10-22T15:16:12;101246.09;;;19.99;100.00
9421;BME280;4749;51.398;5.466;2022-10-22T15:18:40;101238.13;;;19.98;100.00
9421;BME280;4749;51.398;5.466;2022-10-22T15:21:17;101235.66;;;19.91;100.00